sensor_id;sensor_type;location;lat;lon;timestamp;P1;durP1;ratioP1;P2;durP2;ratioP2
4555;SDS011;2290;48.674;9.018;2022-08-25T00:00:19;3.20;;;2.50;;
4555;SDS011;2290;48.674;9.018;2022-08-25T00:02:45;4.07;;;2.50;;
4555;SDS011;2290;48.674;9.018;2022-08-25T00:05:11;7.73;;;2.20;;
4555;SDS011;2290;48.674;9.018;2022-08-25T00:07:37;3.93;;;2.63;;
4555;SDS011;2290;48.674;9.018;2022-08-25T00:10:04;2.90;;;2.40;;
4555;SDS011;2290;48.674;9.018;2022-08-25T00:12:30;6.93;;;2.30;;
4555;SDS011;2290;48.674;9.018;2022-08-25T00:14:56;5.00;;;3.20;;
4555;SDS011;2290;48.674;9.018;2022-08-25T00:17:22;3.37;;;2.60;;
4555;SDS011;2290;48.674;9.018;2022-08-25T00:19:48;2.43;;;2.10;;
4555;SDS011;2290;48.674;9.018;2022-08-25T00:22:14;2.90;;;2.43;;
4555;SDS011;2290;48.674;9.018;2022-08-25T00:24:40;3.60;;;2.40;;
4555;SDS011;2290;48.674;9.018;2022-08-25T00:27:05;2.80;;;2.37;;
4555;SDS011;2290;48.674;9.018;2022-08-25T00:29:31;3.50;;;2.73;;
4555;SDS011;2290;48.674;9.018;2022-08-25T00:31:57;3.60;;;2.40;;
4555;SDS011;2290;48.674;9.018;2022-08-25T00:34:28;3.10;;;2.50;;
4555;SDS011;2290;48.674;9.018;2022-08-25T00:36:58;3.37;;;2.33;;
4555;SDS011;2290;48.674;9.018;2022-08-25T00:39:24;4.17;;;2.90;;
4555;SDS011;2290;48.674;9.018;2022-08-25T00:41:52;3.90;;;2.73;;
4555;SDS011;2290;48.674;9.018;2022-08-25T00:44:21;2.90;;;2.50;;
4555;SDS011;2290;48.674;9.018;2022-08-25T00:46:49;4.60;;;2.80;;
4555;SDS011;2290;48.674;9.018;2022-08-25T00:49:18;3.60;;;2.87;;
4555;SDS011;2290;48.674;9.018;2022-08-25T00:51:49;4.60;;;2.47;;
4555;SDS011;2290;48.674;9.018;2022-08-25T00:54:19;3.07;;;2.77;;
4555;SDS011;2290;48.674;9.018;2022-08-25T00:56:48;3.37;;;2.47;;
4555;SDS011;2290;48.674;9.018;2022-08-25T00:59:16;3.17;;;2.73;;
4555;SDS011;2290;48.674;9.018;2022-08-25T01:01:46;3.20;;;2.63;;
4555;SDS011;2290;48.674;9.018;2022-08-25T01:04:12;2.87;;;2.43;;
4555;SDS011;2290;48.674;9.018;2022-08-25T01:06:39;3.30;;;2.30;;
4555;SDS011;2290;48.674;9.018;2022-08-25T01:09:10;4.43;;;2.70;;
4555;SDS011;2290;48.674;9.018;2022-08-25T01:11:40;2.73;;;2.30;;
4555;SDS011;2290;48.674;9.018;2022-08-25T01:14:08;3.70;;;2.50;;
4555;SDS011;2290;48.674;9.018;2022-08-25T01:16:36;5.10;;;2.63;;
4555;SDS011;2290;48.674;9.018;2022-08-25T01:19:04;2.40;;;2.13;;
4555;SDS011;2290;48.674;9.018;2022-08-25T01:21:37;3.47;;;2.50;;
4555;SDS011;2290;48.674;9.018;2022-08-25T01:24:04;3.10;;;2.37;;
4555;SDS011;2290;48.674;9.018;2022-08-25T01:26:31;2.80;;;2.40;;
4555;SDS011;2290;48.674;9.018;2022-08-25T01:29:00;3.90;;;2.90;;
4555;SDS011;2290;48.674;9.018;2022-08-25T01:31:52;3.10;;;2.40;;
4555;SDS011;2290;48.674;9.018;2022-08-25T01:34:23;3.80;;;2.70;;
4555;SDS011;2290;48.674;9.018;2022-08-25T01:36:51;3.83;;;2.60;;
4555;SDS011;2290;48.674;9.018;2022-08-25T01:39:17;4.80;;;2.80;;
4555;SDS011;2290;48.674;9.018;2022-08-25T01:44:08;3.67;;;2.40;;
4555;SDS011;2290;48.674;9.018;2022-08-25T01:46:34;4.27;;;2.33;;
4555;SDS011;2290;48.674;9.018;2022-08-25T01:49:00;3.17;;;2.40;;
4555;SDS011;2290;48.674;9.018;2022-08-25T01:51:28;2.47;;;2.00;;
4555;SDS011;2290;48.674;9.018;2022-08-25T01:53:57;3.30;;;2.40;;
4555;SDS011;2290;48.674;9.018;2022-08-25T01:56:22;3.93;;;2.87;;
4555;SDS011;2290;48.674;9.018;2022-08-25T01:58:48;3.80;;;2.40;;
4555;SDS011;2290;48.674;9.018;2022-08-25T02:01:21;2.53;;;2.27;;
4555;SDS011;2290;48.674;9.018;2022-08-25T02:03:49;2.60;;;2.20;;
4555;SDS011;2290;48.674;9.018;2022-08-25T02:06:27;2.93;;;2.40;;
4555;SDS011;2290;48.674;9.018;2022-08-25T02:08:57;2.73;;;2.30;;
4555;SDS011;2290;48.674;9.018;2022-08-25T02:11:25;3.90;;;2.77;;
4555;SDS011;2290;48.674;9.018;2022-08-25T02:13:51;3.83;;;3.00;;
4555;SDS011;2290;48.674;9.018;2022-08-25T02:16:19;3.30;;;2.30;;
4555;SDS011;2290;48.674;9.018;2022-08-25T02:18:48;4.43;;;2.50;;
4555;SDS011;2290;48.674;9.018;2022-08-25T02:21:14;3.60;;;3.03;;
4555;SDS011;2290;48.674;9.018;2022-08-25T02:23:40;2.93;;;2.30;;
4555;SDS011;2290;48.674;9.018;2022-08-25T02:26:06;2.93;;;2.63;;
4555;SDS011;2290;48.674;9.018;2022-08-25T02:28:32;3.03;;;2.60;;
4555;SDS011;2290;48.674;9.018;2022-08-25T02:30:57;4.80;;;3.30;;
4555;SDS011;2290;48.674;9.018;2022-08-25T02:33:23;5.33;;;2.77;;
4555;SDS011;2290;48.674;9.018;2022-08-25T02:35:49;2.93;;;2.63;;
4555;SDS011;2290;48.674;9.018;2022-08-25T02:38:15;4.40;;;3.00;;
4555;SDS011;2290;48.674;9.018;2022-08-25T02:40:42;3.47;;;2.47;;
4555;SDS011;2290;48.674;9.018;2022-08-25T02:43:08;4.00;;;3.20;;
4555;SDS011;2290;48.674;9.018;2022-08-25T02:45:33;4.40;;;2.70;;
4555;SDS011;2290;48.674;9.018;2022-08-25T02:48:00;3.80;;;2.73;;
4555;SDS011;2290;48.674;9.018;2022-08-25T02:50:27;3.00;;;2.60;;
4555;SDS011;2290;48.674;9.018;2022-08-25T02:52:52;3.77;;;2.50;;
4555;SDS011;2290;48.674;9.018;2022-08-25T02:55:19;5.13;;;3.07;;
4555;SDS011;2290;48.674;9.018;2022-08-25T02:57:45;4.50;;;2.80;;
4555;SDS011;2290;48.674;9.018;2022-08-25T03:00:12;3.20;;;2.83;;
4555;SDS011;2290;48.674;9.018;2022-08-25T03:02:39;3.00;;;2.73;;
4555;SDS011;2290;48.674;9.018;2022-08-25T03:05:06;4.00;;;3.30;;
4555;SDS011;2290;48.674;9.018;2022-08-25T03:07:33;3.20;;;2.70;;
4555;SDS011;2290;48.674;9.018;2022-08-25T03:10:07;4.63;;;3.37;;
4555;SDS011;2290;48.674;9.018;2022-08-25T03:12:36;6.67;;;2.80;;
4555;SDS011;2290;48.674;9.018;2022-08-25T03:15:02;3.57;;;2.70;;
4555;SDS011;2290;48.674;9.018;2022-08-25T03:17:28;4.17;;;2.83;;
4555;SDS011;2290;48.674;9.018;2022-08-25T03:19:54;4.27;;;2.90;;
4555;SDS011;2290;48.674;9.018;2022-08-25T03:22:19;4.00;;;2.70;;
4555;SDS011;2290;48.674;9.018;2022-08-25T03:24:45;4.13;;;2.93;;
4555;SDS011;2290;48.674;9.018;2022-08-25T03:27:10;3.70;;;2.53;;
4555;SDS011;2290;48.674;9.018;2022-08-25T03:29:37;3.10;;;2.67;;
4555;SDS011;2290;48.674;9.018;2022-08-25T03:32:03;3.10;;;2.63;;
4555;SDS011;2290;48.674;9.018;2022-08-25T03:34:29;4.10;;;3.00;;
4555;SDS011;2290;48.674;9.018;2022-08-25T03:36:55;4.40;;;3.10;;
4555;SDS011;2290;48.674;9.018;2022-08-25T03:39:22;3.80;;;2.50;;
4555;SDS011;2290;48.674;9.018;2022-08-25T03:41:50;3.50;;;2.37;;
4555;SDS011;2290;48.674;9.018;2022-08-25T03:44:17;3.00;;;2.50;;
4555;SDS011;2290;48.674;9.018;2022-08-25T03:46:45;4.13;;;2.50;;
4555;SDS011;2290;48.674;9.018;2022-08-25T03:49:14;3.53;;;2.30;;
4555;SDS011;2290;48.674;9.018;2022-08-25T03:51:43;3.60;;;2.80;;
4555;SDS011;2290;48.674;9.018;2022-08-25T03:54:11;3.07;;;2.30;;
4555;SDS011;2290;48.674;9.018;2022-08-25T03:56:38;4.83;;;2.70;;
4555;SDS011;2290;48.674;9.018;2022-08-25T03:59:05;3.43;;;2.73;;
4555;SDS011;2290;48.674;9.018;2022-08-25T04:01:34;4.00;;;2.43;;
4555;SDS011;2290;48.674;9.018;2022-08-25T04:04:02;4.47;;;2.77;;
4555;SDS011;2290;48.674;9.018;2022-08-25T04:06:28;3.43;;;2.70;;
4555;SDS011;2290;48.674;9.018;2022-08-25T04:08:54;4.17;;;2.77;;
4555;SDS011;2290;48.674;9.018;2022-08-25T04:11:22;4.60;;;2.90;;
4555;SDS011;2290;48.674;9.018;2022-08-25T04:13:50;4.80;;;2.70;;
4555;SDS011;2290;48.674;9.018;2022-08-25T04:16:22;3.70;;;2.57;;
4555;SDS011;2290;48.674;9.018;2022-08-25T04:18:50;3.00;;;2.50;;
4555;SDS011;2290;48.674;9.018;2022-08-25T04:21:17;3.93;;;2.60;;
4555;SDS011;2290;48.674;9.018;2022-08-25T04:23:44;3.37;;;2.57;;
4555;SDS011;2290;48.674;9.018;2022-08-25T04:26:23;3.63;;;2.50;;
4555;SDS011;2290;48.674;9.018;2022-08-25T04:28:55;5.60;;;2.60;;
4555;SDS011;2290;48.674;9.018;2022-08-25T04:31:21;3.47;;;2.33;;
4555;SDS011;2290;48.674;9.018;2022-08-25T04:33:47;3.80;;;3.00;;
4555;SDS011;2290;48.674;9.018;2022-08-25T04:36:14;3.60;;;2.57;;
4555;SDS011;2290;48.674;9.018;2022-08-25T04:38:41;4.03;;;2.93;;
4555;SDS011;2290;48.674;9.018;2022-08-25T04:41:08;3.87;;;2.50;;
4555;SDS011;2290;48.674;9.018;2022-08-25T04:43:35;3.67;;;3.03;;
4555;SDS011;2290;48.674;9.018;2022-08-25T04:46:07;3.90;;;2.83;;
4555;SDS011;2290;48.674;9.018;2022-08-25T04:48:36;4.33;;;3.20;;
4555;SDS011;2290;48.674;9.018;2022-08-25T04:51:07;4.30;;;2.53;;
4555;SDS011;2290;48.674;9.018;2022-08-25T04:53:35;4.67;;;2.67;;
4555;SDS011;2290;48.674;9.018;2022-08-25T04:56:00;2.70;;;2.30;;
4555;SDS011;2290;48.674;9.018;2022-08-25T04:58:30;3.63;;;2.87;;
4555;SDS011;2290;48.674;9.018;2022-08-25T05:01:07;4.80;;;3.23;;
4555;SDS011;2290;48.674;9.018;2022-08-25T05:03:39;2.73;;;2.30;;
4555;SDS011;2290;48.674;9.018;2022-08-25T05:06:05;3.97;;;2.80;;
4555;SDS011;2290;48.674;9.018;2022-08-25T05:08:31;3.43;;;3.10;;
4555;SDS011;2290;48.674;9.018;2022-08-25T05:10:57;3.73;;;2.63;;
4555;SDS011;2290;48.674;9.018;2022-08-25T05:13:24;4.13;;;3.43;;
4555;SDS011;2290;48.674;9.018;2022-08-25T05:15:52;8.50;;;3.00;;
4555;SDS011;2290;48.674;9.018;2022-08-25T05:18:22;3.63;;;2.20;;
4555;SDS011;2290;48.674;9.018;2022-08-25T05:20:50;3.73;;;2.73;;
4555;SDS011;2290;48.674;9.018;2022-08-25T05:23:18;4.63;;;2.87;;
4555;SDS011;2290;48.674;9.018;2022-08-25T05:25:45;4.37;;;2.33;;
4555;SDS011;2290;48.674;9.018;2022-08-25T05:28:11;5.93;;;3.20;;
4555;SDS011;2290;48.674;9.018;2022-08-25T05:30:39;4.20;;;3.10;;
4555;SDS011;2290;48.674;9.018;2022-08-25T05:33:06;5.67;;;3.53;;
4555;SDS011;2290;48.674;9.018;2022-08-25T05:35:32;3.27;;;2.93;;
4555;SDS011;2290;48.674;9.018;2022-08-25T05:37:57;6.20;;;3.23;;
4555;SDS011;2290;48.674;9.018;2022-08-25T05:40:23;4.90;;;2.70;;
4555;SDS011;2290;48.674;9.018;2022-08-25T05:42:49;4.67;;;3.23;;
4555;SDS011;2290;48.674;9.018;2022-08-25T05:45:15;5.33;;;3.20;;
4555;SDS011;2290;48.674;9.018;2022-08-25T05:47:41;3.97;;;2.93;;
4555;SDS011;2290;48.674;9.018;2022-08-25T05:50:07;4.03;;;2.90;;
4555;SDS011;2290;48.674;9.018;2022-08-25T05:52:33;4.90;;;3.30;;
4555;SDS011;2290;48.674;9.018;2022-08-25T05:54:59;4.13;;;3.00;;
4555;SDS011;2290;48.674;9.018;2022-08-25T05:57:24;3.50;;;2.90;;
4555;SDS011;2290;48.674;9.018;2022-08-25T05:59:50;3.43;;;2.23;;
4555;SDS011;2290;48.674;9.018;2022-08-25T06:02:15;4.47;;;2.80;;
4555;SDS011;2290;48.674;9.018;2022-08-25T06:05:00;2.80;;;2.50;;
4555;SDS011;2290;48.674;9.018;2022-08-25T06:07:26;4.63;;;3.50;;
4555;SDS011;2290;48.674;9.018;2022-08-25T06:09:51;7.13;;;3.60;;
4555;SDS011;2290;48.674;9.018;2022-08-25T06:12:18;4.17;;;3.20;;
4555;SDS011;2290;48.674;9.018;2022-08-25T06:14:45;4.57;;;3.17;;
4555;SDS011;2290;48.674;9.018;2022-08-25T06:17:12;4.83;;;3.60;;
4555;SDS011;2290;48.674;9.018;2022-08-25T06:19:37;3.70;;;3.07;;
4555;SDS011;2290;48.674;9.018;2022-08-25T06:22:03;6.50;;;3.97;;
4555;SDS011;2290;48.674;9.018;2022-08-25T06:24:29;4.93;;;3.73;;
4555;SDS011;2290;48.674;9.018;2022-08-25T06:26:55;5.37;;;3.70;;
4555;SDS011;2290;48.674;9.018;2022-08-25T06:29:21;4.90;;;3.73;;
4555;SDS011;2290;48.674;9.018;2022-08-25T06:31:47;7.57;;;3.70;;
4555;SDS011;2290;48.674;9.018;2022-08-25T06:34:13;4.23;;;2.97;;
4555;SDS011;2290;48.674;9.018;2022-08-25T06:36:40;6.50;;;3.97;;
4555;SDS011;2290;48.674;9.018;2022-08-25T06:39:06;5.40;;;3.43;;
4555;SDS011;2290;48.674;9.018;2022-08-25T06:41:32;4.73;;;3.53;;
4555;SDS011;2290;48.674;9.018;2022-08-25T06:43:58;6.10;;;3.70;;
4555;SDS011;2290;48.674;9.018;2022-08-25T06:46:24;6.40;;;3.70;;
4555;SDS011;2290;48.674;9.018;2022-08-25T06:48:52;6.33;;;3.57;;
4555;SDS011;2290;48.674;9.018;2022-08-25T06:51:22;5.57;;;3.93;;
4555;SDS011;2290;48.674;9.018;2022-08-25T06:53:50;4.40;;;3.23;;
4555;SDS011;2290;48.674;9.018;2022-08-25T06:56:17;4.60;;;3.30;;
4555;SDS011;2290;48.674;9.018;2022-08-25T06:58:44;4.80;;;3.70;;
4555;SDS011;2290;48.674;9.018;2022-08-25T07:01:12;5.83;;;3.63;;
4555;SDS011;2290;48.674;9.018;2022-08-25T07:03:39;5.50;;;3.67;;
4555;SDS011;2290;48.674;9.018;2022-08-25T07:06:05;3.70;;;3.07;;
4555;SDS011;2290;48.674;9.018;2022-08-25T07:08:32;7.33;;;4.03;;
4555;SDS011;2290;48.674;9.018;2022-08-25T07:11:03;4.60;;;3.27;;
4555;SDS011;2290;48.674;9.018;2022-08-25T07:13:32;5.67;;;3.50;;
4555;SDS011;2290;48.674;9.018;2022-08-25T07:15:59;7.07;;;3.77;;
4555;SDS011;2290;48.674;9.018;2022-08-25T07:18:24;5.93;;;4.23;;
4555;SDS011;2290;48.674;9.018;2022-08-25T07:20:51;5.07;;;3.70;;
4555;SDS011;2290;48.674;9.018;2022-08-25T07:23:18;7.07;;;4.27;;
4555;SDS011;2290;48.674;9.018;2022-08-25T07:25:45;5.03;;;4.17;;
4555;SDS011;2290;48.674;9.018;2022-08-25T07:28:11;4.60;;;3.87;;
4555;SDS011;2290;48.674;9.018;2022-08-25T07:30:38;6.33;;;3.37;;
4555;SDS011;2290;48.674;9.018;2022-08-25T07:33:04;6.70;;;4.23;;
4555;SDS011;2290;48.674;9.018;2022-08-25T07:35:29;4.87;;;3.50;;
4555;SDS011;2290;48.674;9.018;2022-08-25T07:37:56;6.23;;;4.07;;
4555;SDS011;2290;48.674;9.018;2022-08-25T07:40:33;6.87;;;3.80;;
4555;SDS011;2290;48.674;9.018;2022-08-25T07:43:01;6.60;;;4.70;;
4555;SDS011;2290;48.674;9.018;2022-08-25T07:45:29;4.50;;;3.40;;
4555;SDS011;2290;48.674;9.018;2022-08-25T07:47:57;6.70;;;4.07;;
4555;SDS011;2290;48.674;9.018;2022-08-25T07:50:32;6.43;;;3.33;;
4555;SDS011;2290;48.674;9.018;2022-08-25T07:52:58;5.33;;;3.73;;
4555;SDS011;2290;48.674;9.018;2022-08-25T07:55:24;5.73;;;3.67;;
4555;SDS011;2290;48.674;9.018;2022-08-25T07:57:52;6.10;;;3.70;;
4555;SDS011;2290;48.674;9.018;2022-08-25T08:00:19;5.30;;;3.80;;
4555;SDS011;2290;48.674;9.018;2022-08-25T08:02:45;5.30;;;3.53;;
4555;SDS011;2290;48.674;9.018;2022-08-25T08:05:11;6.57;;;4.17;;
4555;SDS011;2290;48.674;9.018;2022-08-25T08:07:38;5.87;;;3.40;;
4555;SDS011;2290;48.674;9.018;2022-08-25T08:10:04;6.73;;;3.80;;
4555;SDS011;2290;48.674;9.018;2022-08-25T08:12:32;5.10;;;3.70;;
4555;SDS011;2290;48.674;9.018;2022-08-25T08:14:59;5.90;;;3.80;;
4555;SDS011;2290;48.674;9.018;2022-08-25T08:17:25;5.20;;;3.40;;
4555;SDS011;2290;48.674;9.018;2022-08-25T08:19:51;4.67;;;3.40;;
4555;SDS011;2290;48.674;9.018;2022-08-25T08:22:17;4.53;;;3.03;;
4555;SDS011;2290;48.674;9.018;2022-08-25T08:24:43;5.37;;;3.80;;
4555;SDS011;2290;48.674;9.018;2022-08-25T08:27:10;5.33;;;3.70;;
4555;SDS011;2290;48.674;9.018;2022-08-25T08:29:37;6.50;;;3.90;;
4555;SDS011;2290;48.674;9.018;2022-08-25T08:32:04;4.40;;;3.20;;
4555;SDS011;2290;48.674;9.018;2022-08-25T08:34:31;5.33;;;3.90;;
4555;SDS011;2290;48.674;9.018;2022-08-25T08:36:58;6.70;;;4.20;;
4555;SDS011;2290;48.674;9.018;2022-08-25T08:39:24;6.60;;;3.97;;
4555;SDS011;2290;48.674;9.018;2022-08-25T08:52:16;4.93;;;3.37;;
4555;SDS011;2290;48.674;9.018;2022-08-25T08:54:47;5.90;;;3.80;;
4555;SDS011;2290;48.674;9.018;2022-08-25T08:57:29;5.00;;;3.63;;
4555;SDS011;2290;48.674;9.018;2022-08-25T09:00:03;5.90;;;4.00;;
4555;SDS011;2290;48.674;9.018;2022-08-25T09:02:45;7.40;;;3.50;;
4555;SDS011;2290;48.674;9.018;2022-08-25T09:05:19;6.23;;;3.43;;
4555;SDS011;2290;48.674;9.018;2022-08-25T09:07:52;5.10;;;3.50;;
4555;SDS011;2290;48.674;9.018;2022-08-25T09:10:20;5.43;;;4.13;;
4555;SDS011;2290;48.674;9.018;2022-08-25T09:12:58;6.23;;;4.27;;
4555;SDS011;2290;48.674;9.018;2022-08-25T09:15:41;5.33;;;3.40;;
4555;SDS011;2290;48.674;9.018;2022-08-25T09:21:15;5.07;;;3.20;;
4555;SDS011;2290;48.674;9.018;2022-08-25T09:23:53;7.23;;;4.03;;
4555;SDS011;2290;48.674;9.018;2022-08-25T09:26:39;7.10;;;3.50;;
4555;SDS011;2290;48.674;9.018;2022-08-25T09:29:14;5.40;;;3.70;;
4555;SDS011;2290;48.674;9.018;2022-08-25T09:31:45;6.40;;;4.10;;
4555;SDS011;2290;48.674;9.018;2022-08-25T09:34:22;6.70;;;3.77;;
4555;SDS011;2290;48.674;9.018;2022-08-25T09:36:52;6.80;;;4.10;;
4555;SDS011;2290;48.674;9.018;2022-08-25T09:39:18;5.73;;;4.20;;
4555;SDS011;2290;48.674;9.018;2022-08-25T09:41:48;5.50;;;3.90;;
4555;SDS011;2290;48.674;9.018;2022-08-25T09:47:20;5.73;;;4.13;;
4555;SDS011;2290;48.674;9.018;2022-08-25T09:50:00;4.73;;;3.30;;
4555;SDS011;2290;48.674;9.018;2022-08-25T09:54:55;5.30;;;3.67;;
4555;SDS011;2290;48.674;9.018;2022-08-25T09:57:46;5.03;;;3.87;;
4555;SDS011;2290;48.674;9.018;2022-08-25T10:02:42;6.37;;;4.00;;
4555;SDS011;2290;48.674;9.018;2022-08-25T10:05:24;6.23;;;3.67;;
4555;SDS011;2290;48.674;9.018;2022-08-25T10:07:55;4.70;;;3.60;;
4555;SDS011;2290;48.674;9.018;2022-08-25T10:10:31;5.50;;;4.00;;
4555;SDS011;2290;48.674;9.018;2022-08-25T10:13:03;5.23;;;3.47;;
4555;SDS011;2290;48.674;9.018;2022-08-25T10:15:42;4.93;;;3.60;;
4555;SDS011;2290;48.674;9.018;2022-08-25T10:23:44;4.93;;;3.80;;
4555;SDS011;2290;48.674;9.018;2022-08-25T10:26:13;4.70;;;3.13;;
4555;SDS011;2290;48.674;9.018;2022-08-25T10:32:14;4.43;;;3.53;;
4555;SDS011;2290;48.674;9.018;2022-08-25T10:34:48;4.97;;;3.40;;
4555;SDS011;2290;48.674;9.018;2022-08-25T10:40:27;5.47;;;3.80;;
4555;SDS011;2290;48.674;9.018;2022-08-25T10:48:58;4.27;;;3.50;;
4555;SDS011;2290;48.674;9.018;2022-08-25T10:51:38;4.20;;;3.60;;
4555;SDS011;2290;48.674;9.018;2022-08-25T10:56:47;7.90;;;3.40;;
4555;SDS011;2290;48.674;9.018;2022-08-25T10:59:28;4.33;;;3.70;;
4555;SDS011;2290;48.674;9.018;2022-08-25T11:04:52;5.50;;;3.70;;
4555;SDS011;2290;48.674;9.018;2022-08-25T11:07:37;6.10;;;3.83;;
4555;SDS011;2290;48.674;9.018;2022-08-25T11:12:39;4.40;;;3.60;;
4555;SDS011;2290;48.674;9.018;2022-08-25T11:15:16;4.63;;;3.90;;
4555;SDS011;2290;48.674;9.018;2022-08-25T11:17:51;4.57;;;3.53;;
4555;SDS011;2290;48.674;9.018;2022-08-25T11:20:29;4.43;;;3.57;;
4555;SDS011;2290;48.674;9.018;2022-08-25T11:26:19;4.60;;;3.30;;
4555;SDS011;2290;48.674;9.018;2022-08-25T11:30:54;5.30;;;3.23;;
4555;SDS011;2290;48.674;9.018;2022-08-25T11:33:24;4.43;;;3.60;;
4555;SDS011;2290;48.674;9.018;2022-08-25T11:36:02;3.93;;;3.30;;
4555;SDS011;2290;48.674;9.018;2022-08-25T11:49:25;4.40;;;2.90;;
4555;SDS011;2290;48.674;9.018;2022-08-25T11:51:56;3.23;;;2.80;;
4555;SDS011;2290;48.674;9.018;2022-08-25T11:54:26;5.17;;;3.70;;
4555;SDS011;2290;48.674;9.018;2022-08-25T11:57:05;3.50;;;2.77;;
4555;SDS011;2290;48.674;9.018;2022-08-25T12:05:11;3.57;;;2.70;;
4555;SDS011;2290;48.674;9.018;2022-08-25T12:08:04;4.10;;;3.17;;
4555;SDS011;2290;48.674;9.018;2022-08-25T12:10:53;3.53;;;3.00;;
4555;SDS011;2290;48.674;9.018;2022-08-25T12:38:17;3.43;;;3.03;;
4555;SDS011;2290;48.674;9.018;2022-08-25T12:40:57;3.63;;;3.00;;
4555;SDS011;2290;48.674;9.018;2022-08-25T12:43:39;3.57;;;3.03;;
4555;SDS011;2290;48.674;9.018;2022-08-25T12:48:54;3.20;;;2.50;;
4555;SDS011;2290;48.674;9.018;2022-08-25T12:51:21;3.57;;;2.50;;
4555;SDS011;2290;48.674;9.018;2022-08-25T12:53:51;4.03;;;3.10;;
4555;SDS011;2290;48.674;9.018;2022-08-25T12:56:29;4.10;;;2.93;;
4555;SDS011;2290;48.674;9.018;2022-08-25T13:04:34;3.60;;;3.00;;
4555;SDS011;2290;48.674;9.018;2022-08-25T13:10:50;3.03;;;2.67;;
4555;SDS011;2290;48.674;9.018;2022-08-25T13:16:14;4.37;;;3.00;;
4555;SDS011;2290;48.674;9.018;2022-08-25T13:18:42;5.60;;;3.57;;
4555;SDS011;2290;48.674;9.018;2022-08-25T13:23:47;3.20;;;2.90;;
4555;SDS011;2290;48.674;9.018;2022-08-25T13:26:25;5.07;;;3.70;;
4555;SDS011;2290;48.674;9.018;2022-08-25T13:29:02;5.20;;;3.40;;
4555;SDS011;2290;48.674;9.018;2022-08-25T13:31:53;3.53;;;2.93;;
4555;SDS011;2290;48.674;9.018;2022-08-25T13:34:28;3.20;;;2.67;;
4555;SDS011;2290;48.674;9.018;2022-08-25T13:37:01;3.80;;;2.97;;
4555;SDS011;2290;48.674;9.018;2022-08-25T13:42:46;3.53;;;2.67;;
4555;SDS011;2290;48.674;9.018;2022-08-25T13:45:21;3.93;;;3.30;;
4555;SDS011;2290;48.674;9.018;2022-08-25T13:47:49;3.37;;;3.00;;
4555;SDS011;2290;48.674;9.018;2022-08-25T13:52:59;3.23;;;2.90;;
4555;SDS011;2290;48.674;9.018;2022-08-25T13:55:35;8.83;;;3.30;;
4555;SDS011;2290;48.674;9.018;2022-08-25T13:58:29;3.80;;;3.10;;
4555;SDS011;2290;48.674;9.018;2022-08-25T14:01:14;3.47;;;3.17;;
4555;SDS011;2290;48.674;9.018;2022-08-25T14:03:44;3.80;;;3.40;;
4555;SDS011;2290;48.674;9.018;2022-08-25T14:09:25;3.33;;;3.03;;
4555;SDS011;2290;48.674;9.018;2022-08-25T14:11:45;3.20;;;2.90;;
4555;SDS011;2290;48.674;9.018;2022-08-25T14:14:34;3.70;;;3.17;;
4555;SDS011;2290;48.674;9.018;2022-08-25T14:19:33;4.00;;;3.40;;
4555;SDS011;2290;48.674;9.018;2022-08-25T14:22:01;5.10;;;3.30;;
4555;SDS011;2290;48.674;9.018;2022-08-25T14:24:30;4.17;;;3.17;;
4555;SDS011;2290;48.674;9.018;2022-08-25T14:26:58;3.63;;;2.90;;
4555;SDS011;2290;48.674;9.018;2022-08-25T14:29:24;5.77;;;3.30;;
4555;SDS011;2290;48.674;9.018;2022-08-25T14:31:50;3.20;;;2.80;;
4555;SDS011;2290;48.674;9.018;2022-08-25T14:34:23;3.80;;;3.07;;
4555;SDS011;2290;48.674;9.018;2022-08-25T14:36:56;3.43;;;2.70;;
4555;SDS011;2290;48.674;9.018;2022-08-25T14:39:24;3.43;;;3.10;;
4555;SDS011;2290;48.674;9.018;2022-08-25T14:41:50;3.27;;;2.80;;
4555;SDS011;2290;48.674;9.018;2022-08-25T14:44:16;5.20;;;2.97;;
4555;SDS011;2290;48.674;9.018;2022-08-25T14:46:43;3.40;;;2.80;;
4555;SDS011;2290;48.674;9.018;2022-08-25T14:49:20;2.93;;;2.50;;
4555;SDS011;2290;48.674;9.018;2022-08-25T14:51:51;3.83;;;3.20;;
4555;SDS011;2290;48.674;9.018;2022-08-25T14:54:17;3.27;;;2.93;;
4555;SDS011;2290;48.674;9.018;2022-08-25T14:56:47;3.87;;;3.27;;
4555;SDS011;2290;48.674;9.018;2022-08-25T14:59:13;3.10;;;2.80;;
4555;SDS011;2290;48.674;9.018;2022-08-25T15:01:39;2.97;;;2.50;;
4555;SDS011;2290;48.674;9.018;2022-08-25T15:04:06;3.10;;;2.80;;
4555;SDS011;2290;48.674;9.018;2022-08-25T15:06:35;3.30;;;2.90;;
4555;SDS011;2290;48.674;9.018;2022-08-25T15:09:02;3.10;;;2.70;;
4555;SDS011;2290;48.674;9.018;2022-08-25T15:11:32;3.90;;;2.97;;
4555;SDS011;2290;48.674;9.018;2022-08-25T15:13:59;3.73;;;2.90;;
4555;SDS011;2290;48.674;9.018;2022-08-25T15:19:25;5.23;;;2.97;;
4555;SDS011;2290;48.674;9.018;2022-08-25T15:21:51;3.10;;;2.80;;
4555;SDS011;2290;48.674;9.018;2022-08-25T15:24:17;2.83;;;2.63;;
4555;SDS011;2290;48.674;9.018;2022-08-25T15:29:12;2.97;;;2.67;;
4555;SDS011;2290;48.674;9.018;2022-08-25T15:31:37;3.80;;;2.80;;
4555;SDS011;2290;48.674;9.018;2022-08-25T15:34:04;3.40;;;3.10;;
4555;SDS011;2290;48.674;9.018;2022-08-25T15:36:31;3.00;;;2.70;;
4555;SDS011;2290;48.674;9.018;2022-08-25T15:38:58;3.90;;;3.37;;
4555;SDS011;2290;48.674;9.018;2022-08-25T15:41:23;3.63;;;3.27;;
4555;SDS011;2290;48.674;9.018;2022-08-25T15:43:49;3.37;;;3.00;;
4555;SDS011;2290;48.674;9.018;2022-08-25T15:46:16;3.80;;;3.13;;
4555;SDS011;2290;48.674;9.018;2022-08-25T15:48:44;3.80;;;3.40;;
4555;SDS011;2290;48.674;9.018;2022-08-25T15:51:10;3.40;;;3.10;;
4555;SDS011;2290;48.674;9.018;2022-08-25T15:53:37;3.30;;;3.00;;
4555;SDS011;2290;48.674;9.018;2022-08-25T15:56:03;3.83;;;3.43;;
4555;SDS011;2290;48.674;9.018;2022-08-25T15:58:30;3.93;;;3.53;;
4555;SDS011;2290;48.674;9.018;2022-08-25T16:00:56;3.80;;;3.40;;
4555;SDS011;2290;48.674;9.018;2022-08-25T16:03:21;3.40;;;3.10;;
4555;SDS011;2290;48.674;9.018;2022-08-25T16:05:47;4.80;;;3.67;;
4555;SDS011;2290;48.674;9.018;2022-08-25T16:08:12;4.07;;;3.50;;
4555;SDS011;2290;48.674;9.018;2022-08-25T16:10:40;3.60;;;3.03;;
4555;SDS011;2290;48.674;9.018;2022-08-25T16:13:07;3.40;;;3.03;;
4555;SDS011;2290;48.674;9.018;2022-08-25T16:15:33;3.70;;;3.30;;
4555;SDS011;2290;48.674;9.018;2022-08-25T16:18:00;4.10;;;3.43;;
4555;SDS011;2290;48.674;9.018;2022-08-25T16:20:27;4.27;;;3.63;;
4555;SDS011;2290;48.674;9.018;2022-08-25T16:22:55;3.30;;;3.00;;
4555;SDS011;2290;48.674;9.018;2022-08-25T16:25:22;4.50;;;3.43;;
4555;SDS011;2290;48.674;9.018;2022-08-25T16:27:47;5.40;;;4.07;;
4555;SDS011;2290;48.674;9.018;2022-08-25T16:30:13;5.27;;;4.23;;
4555;SDS011;2290;48.674;9.018;2022-08-25T16:32:41;4.67;;;3.50;;
4555;SDS011;2290;48.674;9.018;2022-08-25T16:35:06;3.60;;;3.30;;
4555;SDS011;2290;48.674;9.018;2022-08-25T16:37:32;3.57;;;2.90;;
4555;SDS011;2290;48.674;9.018;2022-08-25T16:39:59;4.10;;;3.47;;
4555;SDS011;2290;48.674;9.018;2022-08-25T16:42:25;3.97;;;3.23;;
4555;SDS011;2290;48.674;9.018;2022-08-25T16:44:51;3.93;;;3.53;;
4555;SDS011;2290;48.674;9.018;2022-08-25T16:47:17;3.50;;;3.07;;
4555;SDS011;2290;48.674;9.018;2022-08-25T16:49:43;3.50;;;3.20;;
4555;SDS011;2290;48.674;9.018;2022-08-25T16:52:10;3.50;;;3.20;;
4555;SDS011;2290;48.674;9.018;2022-08-25T16:54:55;3.73;;;3.40;;
4555;SDS011;2290;48.674;9.018;2022-08-25T16:57:40;6.50;;;3.80;;
4555;SDS011;2290;48.674;9.018;2022-08-25T17:00:08;3.77;;;3.37;;
4555;SDS011;2290;48.674;9.018;2022-08-25T17:02:37;3.63;;;3.20;;
4555;SDS011;2290;48.674;9.018;2022-08-25T17:05:03;3.57;;;3.27;;
4555;SDS011;2290;48.674;9.018;2022-08-25T17:07:30;3.80;;;3.40;;
4555;SDS011;2290;48.674;9.018;2022-08-25T17:09:56;4.67;;;3.23;;
4555;SDS011;2290;48.674;9.018;2022-08-25T17:12:23;4.20;;;3.80;;
4555;SDS011;2290;48.674;9.018;2022-08-25T17:14:49;4.40;;;3.30;;
4555;SDS011;2290;48.674;9.018;2022-08-25T17:17:14;4.10;;;3.70;;
4555;SDS011;2290;48.674;9.018;2022-08-25T17:19:40;3.73;;;3.43;;
4555;SDS011;2290;48.674;9.018;2022-08-25T17:22:06;3.43;;;3.13;;
4555;SDS011;2290;48.674;9.018;2022-08-25T17:24:32;4.20;;;3.80;;
4555;SDS011;2290;48.674;9.018;2022-08-25T17:26:58;3.60;;;3.30;;
4555;SDS011;2290;48.674;9.018;2022-08-25T17:29:24;3.80;;;3.50;;
4555;SDS011;2290;48.674;9.018;2022-08-25T17:31:50;4.00;;;3.60;;
4555;SDS011;2290;48.674;9.018;2022-08-25T17:34:16;3.50;;;3.20;;
4555;SDS011;2290;48.674;9.018;2022-08-25T17:36:43;4.13;;;3.63;;